createdAt,value
2019-06-20T00:01:41.538Z,16.93
2019-06-20T00:04:31.513Z,15.38
2019-06-20T00:07:22.595Z,11.83
2019-06-20T00:10:12.761Z,15.60
2019-06-20T00:13:02.678Z,17.27
2019-06-20T00:19:24.859Z,14.18
2019-06-20T00:22:17.005Z,18.65
2019-06-20T00:25:11.802Z,12.10
2019-06-20T00:28:02.989Z,11.93
2019-06-20T00:30:53.954Z,17.42
2019-06-20T00:33:45.668Z,12.93
2019-06-20T00:36:37.068Z,12.70
2019-06-20T00:39:29.539Z,16.65
2019-06-20T00:42:21.504Z,13.10
2019-06-20T00:45:14.375Z,17.95
2019-06-20T00:48:06.584Z,15.05
2019-06-20T00:51:00.193Z,12.05
2019-06-20T00:53:51.213Z,14.68
2019-06-20T00:56:41.673Z,14.23
2019-06-20T00:59:35.210Z,15.55
2019-06-20T01:02:26.666Z,16.95
2019-06-20T01:05:18.299Z,19.00
2019-06-20T01:08:08.868Z,23.73
2019-06-20T01:14:54.514Z,17.70
2019-06-20T01:17:45.609Z,15.72
2019-06-20T01:20:36.233Z,11.73
2019-06-20T01:23:26.647Z,10.60
2019-06-20T01:26:16.870Z,15.35
2019-06-20T01:29:07.162Z,12.40
2019-06-20T01:31:57.026Z,12.78
2019-06-20T01:34:47.199Z,18.10
2019-06-20T01:37:37.083Z,14.40
2019-06-20T01:40:27.169Z,11.55
2019-06-20T01:43:18.968Z,11.40
2019-06-20T01:46:08.598Z,12.73
2019-06-20T01:48:58.442Z,11.38
2019-06-20T01:51:47.985Z,15.68
2019-06-20T01:54:38.353Z,14.03
2019-06-20T01:57:28.964Z,11.03
2019-06-20T02:00:40.187Z,9.90
2019-06-20T02:03:30.107Z,9.65
2019-06-20T02:06:20.553Z,14.13
2019-06-20T02:09:10.999Z,12.05
2019-06-20T02:12:01.039Z,13.25
2019-06-20T02:14:51.049Z,14.28
2019-06-20T02:22:02.208Z,10.53
2019-06-20T02:24:52.470Z,9.60
2019-06-20T02:27:42.670Z,10.85
2019-06-20T02:30:33.214Z,13.32
2019-06-20T02:33:23.471Z,9.80
2019-06-20T02:36:13.615Z,11.65
2019-06-20T02:39:03.757Z,13.55
2019-06-20T02:41:55.514Z,9.50
2019-06-20T02:44:45.950Z,9.28
2019-06-20T02:47:36.129Z,7.62
2019-06-20T02:50:26.079Z,6.65
2019-06-20T02:53:15.877Z,6.33
2019-06-20T02:56:06.214Z,7.00
2019-06-20T02:58:57.639Z,6.55
2019-06-20T03:01:48.974Z,10.10
2019-06-20T03:04:38.754Z,7.15
2019-06-20T03:07:28.898Z,9.05
2019-06-20T03:10:19.071Z,9.05
2019-06-20T03:13:09.613Z,6.42
2019-06-20T03:16:00.103Z,7.17
2019-06-20T03:18:50.110Z,9.33
2019-06-20T03:21:40.060Z,7.37
2019-06-20T03:24:29.690Z,10.45
2019-06-20T03:27:19.817Z,9.75
2019-06-20T03:30:10.269Z,8.13
2019-06-20T03:33:03.506Z,6.70
2019-06-20T03:35:53.675Z,8.10
2019-06-20T03:38:43.222Z,10.80
2019-06-20T03:41:32.861Z,5.87
2019-06-20T03:44:22.777Z,9.83
2019-06-20T03:47:12.868Z,10.23
2019-06-20T03:50:03.823Z,7.60
2019-06-20T03:53:06.261Z,5.70
2019-06-20T03:55:57.244Z,4.83
2019-06-20T03:58:47.742Z,9.90
2019-06-20T04:01:37.370Z,7.72
2019-06-20T04:04:27.177Z,8.23
2019-06-20T04:07:18.307Z,6.20
2019-06-20T04:10:09.265Z,6.30
2019-06-20T04:12:58.985Z,4.90
2019-06-20T04:15:50.051Z,6.22
2019-06-20T04:18:40.156Z,9.35
2019-06-20T04:21:30.060Z,6.78
2019-06-20T04:24:20.078Z,5.05
2019-06-20T04:27:10.314Z,5.22
2019-06-20T04:30:01.718Z,7.45
2019-06-20T04:32:52.823Z,5.42
2019-06-20T04:35:43.072Z,5.75
2019-06-20T04:38:34.706Z,4.90
2019-06-20T04:41:24.373Z,6.95
2019-06-20T04:44:14.552Z,4.53
2019-06-20T04:47:11.134Z,4.80
2019-06-20T04:50:02.459Z,6.37
2019-06-20T04:52:52.495Z,4.35
2019-06-20T04:55:42.370Z,8.53
2019-06-20T04:58:32.564Z,5.22
2019-06-20T05:01:41.507Z,11.93
2019-06-20T05:04:31.452Z,5.67
2019-06-20T05:07:22.035Z,6.33
2019-06-20T05:10:12.912Z,10.68
2019-06-20T05:13:03.076Z,8.30
2019-06-20T05:15:53.503Z,5.95
2019-06-20T05:18:45.247Z,5.12
2019-06-20T05:21:35.072Z,5.50
2019-06-20T05:24:25.730Z,11.15
2019-06-20T05:27:16.185Z,4.72
2019-06-20T05:30:09.034Z,8.08
2019-06-20T05:32:58.915Z,9.98
2019-06-20T05:35:48.751Z,8.13
2019-06-20T05:38:38.706Z,4.40
2019-06-20T05:41:29.737Z,6.22
2019-06-20T05:44:20.298Z,7.50
2019-06-20T05:47:13.914Z,4.80
2019-06-20T05:50:04.551Z,29.50
2019-06-20T05:52:55.657Z,7.53
2019-06-20T05:55:45.877Z,9.75
2019-06-20T05:58:36.127Z,9.78
2019-06-20T06:01:26.567Z,6.47
2019-06-20T06:04:16.749Z,9.18
2019-06-20T06:07:06.510Z,11.95
2019-06-20T06:10:03.897Z,8.95
2019-06-20T06:12:51.335Z,7.47
2019-06-20T06:15:41.314Z,5.17
2019-06-20T06:18:31.735Z,8.88
2019-06-20T06:21:21.642Z,6.12
2019-06-20T06:24:15.025Z,8.83
2019-06-20T06:27:05.559Z,8.78
2019-06-20T06:29:55.569Z,5.67
2019-06-20T06:32:46.187Z,8.58
2019-06-20T06:35:36.066Z,5.92
2019-06-20T06:38:26.164Z,11.83
2019-06-20T06:41:16.080Z,7.75
2019-06-20T06:44:08.377Z,7.00
2019-06-20T06:46:59.629Z,9.93
2019-06-20T06:49:48.778Z,11.88
2019-06-20T06:52:38.742Z,6.50
2019-06-20T06:55:28.741Z,11.97
2019-06-20T06:58:18.823Z,5.53
2019-06-20T07:01:10.314Z,11.40
2019-06-20T07:04:00.644Z,9.68
2019-06-20T07:06:50.548Z,11.35
2019-06-20T07:09:40.509Z,10.60
2019-06-20T07:12:30.206Z,8.68
2019-06-20T07:15:21.164Z,9.05
2019-06-20T07:18:11.092Z,6.67
2019-06-20T07:21:00.907Z,5.45
2019-06-20T07:23:54.160Z,6.55
2019-06-20T07:26:44.093Z,12.53
2019-06-20T07:29:35.379Z,7.10
2019-06-20T07:32:25.267Z,17.98
2019-06-20T07:35:18.713Z,12.78
2019-06-20T07:38:08.718Z,10.48
2019-06-20T07:40:59.026Z,8.93
2019-06-20T07:43:49.007Z,10.68
2019-06-20T07:46:38.941Z,5.42
2019-06-20T07:49:28.692Z,7.25
2019-06-20T07:52:38.130Z,6.37
2019-06-20T07:55:28.539Z,6.08
2019-06-20T07:58:18.527Z,16.67
2019-06-20T08:01:09.034Z,6.42
2019-06-20T08:03:59.096Z,7.78
2019-06-20T08:06:50.256Z,4.97
2019-06-20T08:09:44.691Z,4.92
2019-06-20T08:12:32.249Z,4.30
2019-06-20T08:15:23.558Z,5.55
2019-06-20T08:18:13.190Z,6.92
2019-06-20T08:21:03.132Z,9.60
2019-06-20T08:23:53.920Z,5.47
2019-06-20T08:26:43.686Z,13.25
2019-06-20T08:29:34.921Z,4.90
2019-06-20T08:32:24.892Z,4.58
2019-06-20T08:35:15.194Z,8.73
2019-06-20T08:38:06.091Z,7.17
2019-06-20T08:40:57.028Z,8.93
2019-06-20T08:43:48.238Z,8.45
2019-06-20T08:46:38.800Z,3.87
2019-06-20T08:49:28.791Z,4.60
2019-06-20T08:52:19.167Z,3.60
2019-06-20T08:55:09.534Z,6.53
2019-06-20T08:57:59.728Z,6.72
2019-06-20T09:00:50.495Z,7.10
2019-06-20T09:03:41.030Z,6.25
2019-06-20T09:06:31.210Z,7.60
2019-06-20T09:09:21.297Z,20.62
2019-06-20T09:12:11.100Z,8.98
2019-06-20T09:15:03.263Z,8.18
2019-06-20T09:17:54.919Z,9.43
2019-06-20T09:20:44.966Z,6.22
2019-06-20T09:23:35.766Z,4.97
2019-06-20T09:26:25.991Z,6.03
2019-06-20T09:29:16.331Z,8.38
2019-06-20T09:32:07.431Z,10.28
2019-06-20T09:34:58.766Z,4.85
2019-06-20T09:37:48.830Z,5.97
2019-06-20T09:40:39.336Z,8.87
2019-06-20T09:43:29.140Z,7.42
2019-06-20T09:46:19.111Z,5.47
2019-06-20T09:49:08.657Z,7.33
2019-06-20T09:52:00.544Z,8.50
2019-06-20T09:54:52.190Z,9.75
2019-06-20T09:57:41.865Z,7.70
2019-06-20T10:00:33.256Z,5.95
2019-06-20T10:03:24.044Z,10.13
2019-06-20T10:06:14.669Z,13.78
2019-06-20T10:09:07.241Z,6.75
2019-06-20T10:11:56.764Z,7.92
2019-06-20T10:14:46.913Z,7.62
2019-06-20T10:17:38.409Z,7.50
2019-06-20T10:20:28.232Z,8.75
2019-06-20T10:23:18.156Z,4.92
2019-06-20T10:26:20.362Z,7.80
2019-06-20T10:29:10.032Z,7.58
2019-06-20T10:31:59.955Z,5.50
2019-06-20T10:34:50.622Z,5.40
2019-06-20T10:37:40.825Z,4.20
2019-06-20T10:40:30.282Z,4.10
2019-06-20T10:43:20.086Z,5.35
2019-06-20T10:46:09.927Z,4.40
2019-06-20T10:48:59.888Z,6.83
2019-06-20T10:51:49.715Z,6.85
2019-06-20T10:54:41.640Z,5.05
2019-06-20T10:57:32.075Z,5.60
2019-06-20T11:00:31.564Z,5.62
2019-06-20T11:03:16.716Z,7.87
2019-06-20T11:06:06.520Z,6.05
2019-06-20T11:08:56.436Z,6.50
2019-06-20T11:11:47.122Z,7.65
2019-06-20T11:14:38.660Z,3.77
2019-06-20T11:17:30.552Z,6.08
2019-06-20T11:20:20.380Z,5.62
2019-06-20T11:23:09.977Z,5.17
2019-06-20T11:25:59.647Z,7.67
2019-06-20T11:28:49.642Z,5.40
2019-06-20T11:31:53.283Z,4.60
2019-06-20T11:34:43.153Z,6.97
2019-06-20T11:37:33.074Z,8.65
2019-06-20T11:40:25.388Z,6.10
2019-06-20T11:43:16.605Z,6.47
2019-06-20T11:48:54.927Z,5.67
2019-06-20T11:51:44.606Z,4.87
2019-06-20T11:54:34.474Z,6.30
2019-06-20T11:57:24.232Z,6.62
2019-06-20T12:00:17.078Z,5.70
2019-06-20T12:03:06.744Z,7.85
2019-06-20T12:05:56.362Z,10.63
2019-06-20T12:08:46.804Z,6.50
2019-06-20T12:11:36.508Z,7.65
2019-06-20T12:14:26.114Z,5.60
2019-06-20T12:17:16.203Z,10.28
2019-06-20T12:20:08.349Z,8.80
2019-06-20T12:22:57.861Z,5.92
2019-06-20T12:25:48.745Z,7.83
2019-06-20T12:28:40.750Z,5.25
2019-06-20T12:31:31.203Z,9.60
2019-06-20T12:34:22.552Z,8.45
2019-06-20T12:37:12.278Z,7.60
2019-06-20T12:40:02.186Z,8.00
2019-06-20T12:42:51.859Z,5.50
2019-06-20T12:45:42.858Z,8.53
2019-06-20T12:48:33.873Z,14.10
2019-06-20T12:51:23.524Z,10.18
2019-06-20T12:54:13.396Z,7.75
2019-06-20T12:57:03.051Z,7.50
2019-06-20T12:59:52.687Z,9.30
2019-06-20T13:02:43.785Z,9.33
2019-06-20T13:05:33.391Z,7.47
2019-06-20T13:08:23.785Z,9.68
2019-06-20T13:11:17.428Z,8.75
2019-06-20T13:14:07.326Z,10.63
2019-06-20T13:17:00.652Z,16.80
2019-06-20T13:19:51.764Z,40.25
2019-06-20T13:22:42.913Z,102.47
2019-06-20T13:25:32.937Z,19.12
2019-06-20T13:28:23.147Z,18.35
2019-06-20T13:31:13.940Z,12.15
2019-06-20T13:34:03.559Z,9.58
2019-06-20T13:36:53.587Z,11.05
2019-06-20T13:39:43.363Z,6.72
2019-06-20T13:42:33.299Z,10.25
2019-06-20T13:45:25.422Z,11.12
2019-06-20T13:48:15.317Z,13.58
2019-06-20T13:51:06.200Z,26.33
2019-06-20T13:53:56.305Z,16.07
2019-06-20T13:56:47.215Z,10.30
2019-06-20T13:59:37.416Z,8.38
2019-06-20T14:02:27.182Z,8.43
2019-06-20T14:05:18.304Z,9.23
2019-06-20T14:08:10.445Z,70.92
2019-06-20T14:11:00.681Z,68.30
2019-06-20T14:13:52.673Z,86.80
2019-06-20T14:16:42.991Z,155.70
2019-06-20T14:19:33.084Z,103.97
2019-06-20T14:22:23.692Z,131.35
2019-06-20T14:25:13.546Z,27.87
2019-06-20T14:28:03.187Z,28.50
2019-06-20T14:30:53.283Z,38.73
2019-06-20T14:33:44.356Z,25.82
2019-06-20T14:36:34.739Z,14.85
2019-06-20T14:39:24.454Z,16.67
2019-06-20T14:42:14.286Z,15.72
2019-06-20T14:45:06.143Z,26.57
2019-06-20T14:47:55.574Z,21.68
2019-06-20T14:50:46.441Z,22.48
2019-06-20T14:53:36.930Z,31.23
2019-06-20T14:56:26.744Z,29.30
2019-06-20T14:59:16.555Z,15.58
2019-06-20T15:02:06.237Z,11.93
2019-06-20T15:04:56.759Z,12.78
2019-06-20T15:07:47.340Z,14.47
2019-06-20T15:10:37.458Z,18.75
2019-06-20T15:13:27.278Z,14.28
2019-06-20T15:16:16.776Z,13.55
2019-06-20T15:19:06.326Z,10.28
2019-06-20T15:21:56.519Z,8.95
2019-06-20T15:24:48.629Z,10.10
2019-06-20T15:27:37.616Z,16.00
2019-06-20T15:30:27.324Z,15.10
2019-06-20T15:33:16.684Z,10.45
2019-06-20T15:36:06.749Z,9.23
2019-06-20T15:38:57.335Z,9.45
2019-06-20T15:41:48.338Z,14.28
2019-06-20T15:44:38.337Z,13.80
2019-06-20T15:47:31.798Z,19.12
2019-06-20T15:50:21.327Z,8.18
2019-06-20T15:53:11.230Z,12.10
2019-06-20T15:56:00.832Z,13.72
2019-06-20T15:58:50.783Z,8.25
2019-06-20T16:01:40.422Z,12.93
2019-06-20T16:04:31.483Z,17.00
2019-06-20T16:07:21.161Z,14.38
2019-06-20T16:10:11.938Z,14.93
2019-06-20T16:13:01.998Z,13.40
2019-06-20T16:15:51.889Z,12.10
2019-06-20T16:18:41.638Z,14.28
2019-06-20T16:21:31.574Z,11.35
2019-06-20T16:24:21.543Z,13.72
2019-06-20T16:27:11.015Z,12.35
2019-06-20T16:30:01.182Z,12.07
2019-06-20T16:32:50.859Z,15.58
2019-06-20T16:35:40.754Z,18.15
2019-06-20T16:38:30.664Z,13.15
2019-06-20T16:41:20.272Z,18.05
2019-06-20T16:44:10.153Z,18.50
2019-06-20T16:46:59.921Z,16.07
2019-06-20T16:49:51.316Z,17.62
2019-06-20T16:52:40.809Z,21.07
2019-06-20T16:55:30.362Z,17.32
2019-06-20T16:58:19.941Z,15.88
2019-06-20T17:01:09.527Z,13.43
2019-06-20T17:04:10.525Z,17.73
2019-06-20T17:07:04.378Z,13.50
2019-06-20T17:09:54.896Z,19.20
2019-06-20T17:12:44.603Z,13.48
2019-06-20T17:15:34.070Z,14.43
2019-06-20T17:18:23.976Z,40.20
2019-06-20T17:21:13.827Z,39.25
2019-06-20T17:24:05.127Z,38.15
2019-06-20T17:26:54.699Z,27.30
2019-06-20T17:29:44.719Z,22.20
2019-06-20T17:32:34.353Z,20.57
2019-06-20T17:35:24.778Z,22.62
2019-06-20T17:38:15.677Z,17.85
2019-06-20T17:41:04.966Z,17.02
2019-06-20T17:43:54.984Z,17.27
2019-06-20T17:46:45.907Z,41.50
2019-06-20T17:49:35.792Z,45.00
2019-06-20T17:52:25.653Z,26.37
2019-06-20T17:55:19.220Z,17.12
2019-06-20T17:58:09.005Z,23.30
2019-06-20T18:00:58.712Z,40.45
2019-06-20T18:03:48.638Z,31.52
2019-06-20T18:06:39.356Z,34.27
2019-06-20T18:09:30.621Z,28.17
2019-06-20T18:12:20.640Z,28.70
2019-06-20T18:15:11.806Z,23.77
2019-06-20T18:18:01.684Z,18.48
2019-06-20T18:20:52.107Z,27.85
2019-06-20T18:23:43.178Z,22.80
2019-06-20T18:26:33.526Z,18.07
2019-06-20T18:29:23.121Z,17.07
2019-06-20T18:32:13.077Z,19.50
2019-06-20T18:35:02.758Z,29.12
2019-06-20T18:37:54.708Z,23.80
2019-06-20T18:40:44.380Z,27.30
2019-06-20T18:43:34.796Z,42.33
2019-06-20T18:46:24.367Z,30.23
2019-06-20T18:49:14.253Z,52.27
2019-06-20T18:52:04.126Z,49.30
2019-06-20T18:54:54.095Z,30.60
2019-06-20T18:57:44.264Z,39.33
2019-06-20T19:00:35.296Z,21.95
2019-06-20T19:03:25.176Z,24.63
2019-06-20T19:06:14.691Z,25.48
2019-06-20T19:09:08.226Z,26.52
2019-06-20T19:11:58.811Z,27.77
2019-06-20T19:14:48.505Z,18.23
2019-06-20T19:17:38.321Z,17.10
2019-06-20T19:20:27.921Z,21.50
2019-06-20T19:23:17.622Z,17.98
2019-06-20T19:26:07.333Z,22.42
2019-06-20T19:28:57.832Z,19.70
2019-06-20T19:31:47.528Z,20.90
2019-06-20T19:34:37.340Z,23.00
2019-06-20T19:37:27.493Z,17.75
2019-06-20T19:40:17.497Z,19.67
2019-06-20T19:43:07.269Z,25.20
2019-06-20T19:45:57.046Z,17.55
2019-06-20T19:48:46.918Z,19.32
2019-06-20T19:51:36.575Z,18.90
2019-06-20T19:54:26.809Z,17.87
2019-06-20T19:57:16.437Z,20.68
2019-06-20T20:00:08.031Z,19.00
2019-06-20T20:02:57.651Z,21.48
2019-06-20T20:05:50.423Z,16.97
2019-06-20T20:08:40.868Z,20.00
2019-06-20T20:11:31.997Z,14.47
2019-06-20T20:14:21.674Z,31.27
2019-06-20T20:17:14.169Z,44.95
2019-06-20T20:20:05.776Z,36.13
2019-06-20T20:22:55.713Z,19.75
2019-06-20T20:25:45.652Z,15.23
2019-06-20T20:28:36.537Z,16.62
2019-06-20T20:31:26.127Z,18.15
2019-06-20T20:34:16.509Z,17.90
2019-06-20T20:37:06.056Z,18.62
2019-06-20T20:39:55.744Z,17.95
2019-06-20T20:42:46.333Z,21.07
2019-06-20T20:45:36.283Z,18.35
2019-06-20T20:48:26.245Z,19.57
2019-06-20T20:51:16.288Z,17.10
2019-06-20T20:54:05.970Z,15.05
2019-06-20T20:56:55.500Z,14.95
2019-06-20T20:59:46.616Z,15.95
2019-06-20T21:02:36.428Z,14.40
2019-06-20T21:05:26.757Z,13.35
2019-06-20T21:08:19.165Z,13.78
2019-06-20T21:11:07.943Z,14.23
2019-06-20T21:13:58.285Z,12.70
2019-06-20T21:16:48.652Z,14.23
2019-06-20T21:19:42.219Z,10.88
2019-06-20T21:22:31.848Z,13.48
2019-06-20T21:25:21.984Z,17.95
2019-06-20T21:28:11.566Z,12.13
2019-06-20T21:31:01.149Z,11.93
2019-06-20T21:33:54.261Z,12.13
2019-06-20T21:36:42.136Z,12.58
2019-06-20T21:39:32.650Z,14.28
2019-06-20T21:42:22.620Z,13.53
2019-06-20T21:45:12.837Z,11.45
2019-06-20T21:48:02.796Z,12.93
2019-06-20T21:50:52.351Z,13.55
2019-06-20T21:53:42.064Z,15.83
2019-06-20T21:56:33.380Z,11.60
2019-06-20T21:59:22.999Z,18.12
2019-06-20T22:02:12.484Z,13.13
2019-06-20T22:05:03.590Z,17.20
2019-06-20T22:07:54.396Z,15.25
2019-06-20T22:10:44.232Z,15.10
2019-06-20T22:13:34.157Z,13.13
2019-06-20T22:20:25.652Z,14.35
2019-06-20T22:23:15.420Z,13.50
2019-06-20T22:26:05.563Z,19.10
2019-06-20T22:28:55.646Z,19.98
2019-06-20T22:31:46.964Z,13.88
2019-06-20T22:34:39.682Z,17.70
2019-06-20T22:37:30.297Z,14.18
2019-06-20T22:40:20.584Z,17.20
2019-06-20T22:43:10.424Z,16.10
2019-06-20T22:46:02.253Z,15.63
2019-06-20T22:48:52.372Z,14.80
2019-06-20T22:51:42.515Z,16.50
2019-06-20T22:54:32.271Z,13.70
2019-06-20T22:57:25.864Z,16.70
2019-06-20T23:00:15.825Z,13.93
2019-06-20T23:03:06.761Z,13.10
2019-06-20T23:05:57.834Z,14.68
2019-06-20T23:08:48.067Z,12.45
2019-06-20T23:11:37.896Z,12.75
2019-06-20T23:14:28.386Z,15.00
2019-06-20T23:21:10.749Z,16.82
2019-06-20T23:24:00.452Z,16.25
2019-06-20T23:26:51.231Z,17.90
2019-06-20T23:29:41.027Z,13.55
2019-06-20T23:32:31.857Z,14.53
2019-06-20T23:35:21.688Z,14.28
2019-06-20T23:38:12.903Z,14.75
2019-06-20T23:41:04.430Z,13.78
2019-06-20T23:43:54.141Z,13.95
2019-06-20T23:46:44.086Z,14.38
2019-06-20T23:49:33.908Z,13.93
2019-06-20T23:52:31.222Z,16.65
2019-06-20T23:55:20.994Z,18.30
2019-06-20T23:58:10.875Z,14.15
